sensor_id;sensor_type;location;lat;lon;timestamp;temperature;humidity
35692;DHT22;26978;44.830;-0.674;2022-12-29T00:01:34;12.90;99.90
35692;DHT22;26978;44.830;-0.674;2022-12-29T00:04:00;12.90;99.90
35692;DHT22;26978;44.830;-0.674;2022-12-29T00:06:25;12.90;99.90
35692;DHT22;26978;44.830;-0.674;2022-12-29T00:08:51;13.00;99.90
35692;DHT22;26978;44.830;-0.674;2022-12-29T00:11:21;13.00;99.90
35692;DHT22;26978;44.830;-0.674;2022-12-29T00:13:47;13.10;99.90
35692;DHT22;26978;44.830;-0.674;2022-12-29T00:16:32;13.00;99.90
35692;DHT22;26978;44.830;-0.674;2022-12-29T00:19:08;13.10;99.90
35692;DHT22;26978;44.830;-0.674;2022-12-29T00:21:54;13.10;99.90
35692;DHT22;26978;44.830;-0.674;2022-12-29T00:24:38;13.10;99.90
35692;DHT22;26978;44.830;-0.674;2022-12-29T00:27:22;13.20;99.90
35692;DHT22;26978;44.830;-0.674;2022-12-29T00:30:12;13.30;99.90
35692;DHT22;26978;44.830;-0.674;2022-12-29T00:32:57;13.40;99.90
35692;DHT22;26978;44.830;-0.674;2022-12-29T00:35:52;13.30;99.90
35692;DHT22;26978;44.830;-0.674;2022-12-29T00:38:19;13.30;99.90
35692;DHT22;26978;44.830;-0.674;2022-12-29T00:41:03;13.20;99.90
35692;DHT22;26978;44.830;-0.674;2022-12-29T00:43:47;13.10;99.90
35692;DHT22;26978;44.830;-0.674;2022-12-29T00:46:35;13.00;99.90
35692;DHT22;26978;44.830;-0.674;2022-12-29T00:49:01;12.90;99.90
35692;DHT22;26978;44.830;-0.674;2022-12-29T00:51:45;12.90;99.90
35692;DHT22;26978;44.830;-0.674;2022-12-29T00:54:11;12.80;99.90
35692;DHT22;26978;44.830;-0.674;2022-12-29T00:56:37;12.90;99.90
35692;DHT22;26978;44.830;-0.674;2022-12-29T00:59:03;12.90;99.90
35692;DHT22;26978;44.830;-0.674;2022-12-29T01:01:29;12.90;99.90
35692;DHT22;26978;44.830;-0.674;2022-12-29T01:03:54;12.90;99.90
35692;DHT22;26978;44.830;-0.674;2022-12-29T01:06:20;13.00;99.90
35692;DHT22;26978;44.830;-0.674;2022-12-29T01:08:45;13.00;99.90
35692;DHT22;26978;44.830;-0.674;2022-12-29T01:11:11;13.00;99.90
35692;DHT22;26978;44.830;-0.674;2022-12-29T01:13:38;13.00;99.90
35692;DHT22;26978;44.830;-0.674;2022-12-29T01:16:04;13.20;99.90
35692;DHT22;26978;44.830;-0.674;2022-12-29T01:18:30;13.20;99.90
35692;DHT22;26978;44.830;-0.674;2022-12-29T01:20:59;13.00;99.90
35692;DHT22;26978;44.830;-0.674;2022-12-29T01:23:25;12.80;99.90
35692;DHT22;26978;44.830;-0.674;2022-12-29T01:25:50;12.80;99.90
35692;DHT22;26978;44.830;-0.674;2022-12-29T01:28:16;12.60;99.90
35692;DHT22;26978;44.830;-0.674;2022-12-29T01:30:41;12.60;99.90
35692;DHT22;26978;44.830;-0.674;2022-12-29T01:33:07;12.50;99.90
35692;DHT22;26978;44.830;-0.674;2022-12-29T01:35:32;12.50;99.90
35692;DHT22;26978;44.830;-0.674;2022-12-29T01:37:58;12.40;99.90
35692;DHT22;26978;44.830;-0.674;2022-12-29T01:40:24;12.40;99.90
35692;DHT22;26978;44.830;-0.674;2022-12-29T01:42:50;12.40;99.90
35692;DHT22;26978;44.830;-0.674;2022-12-29T01:45:16;12.30;99.90
35692;DHT22;26978;44.830;-0.674;2022-12-29T01:48:15;12.20;99.90
35692;DHT22;26978;44.830;-0.674;2022-12-29T01:50:44;12.20;99.90
35692;DHT22;26978;44.830;-0.674;2022-12-29T01:53:13;12.20;99.90
35692;DHT22;26978;44.830;-0.674;2022-12-29T01:55:46;12.20;99.90
35692;DHT22;26978;44.830;-0.674;2022-12-29T01:58:13;12.10;99.90
35692;DHT22;26978;44.830;-0.674;2022-12-29T02:00:40;12.00;99.90
35692;DHT22;26978;44.830;-0.674;2022-12-29T02:03:06;11.90;99.90
35692;DHT22;26978;44.830;-0.674;2022-12-29T02:08:01;11.90;99.90
35692;DHT22;26978;44.830;-0.674;2022-12-29T02:10:27;11.90;99.90
35692;DHT22;26978;44.830;-0.674;2022-12-29T02:12:55;11.90;99.90
35692;DHT22;26978;44.830;-0.674;2022-12-29T02:15:22;11.90;99.90
35692;DHT22;26978;44.830;-0.674;2022-12-29T02:20:39;11.80;99.90
35692;DHT22;26978;44.830;-0.674;2022-12-29T02:38:59;11.90;99.90
35692;DHT22;26978;44.830;-0.674;2022-12-29T02:46:22;11.90;99.90
35692;DHT22;26978;44.830;-0.674;2022-12-29T02:51:23;11.80;99.90
35692;DHT22;26978;44.830;-0.674;2022-12-29T02:53:50;11.80;99.90
35692;DHT22;26978;44.830;-0.674;2022-12-29T02:56:36;11.90;99.90
35692;DHT22;26978;44.830;-0.674;2022-12-29T02:59:01;11.90;99.90
35692;DHT22;26978;44.830;-0.674;2022-12-29T03:01:37;11.80;99.90
35692;DHT22;26978;44.830;-0.674;2022-12-29T03:04:36;11.80;99.90
35692;DHT22;26978;44.830;-0.674;2022-12-29T03:09:34;11.80;99.90
35692;DHT22;26978;44.830;-0.674;2022-12-29T03:12:36;11.90;99.90
35692;DHT22;26978;44.830;-0.674;2022-12-29T03:15:13;11.90;99.90
35692;DHT22;26978;44.830;-0.674;2022-12-29T03:18:06;11.80;99.90
35692;DHT22;26978;44.830;-0.674;2022-12-29T03:20:38;11.80;99.90
35692;DHT22;26978;44.830;-0.674;2022-12-29T03:23:04;11.80;99.90
35692;DHT22;26978;44.830;-0.674;2022-12-29T03:25:31;11.90;99.90
35692;DHT22;26978;44.830;-0.674;2022-12-29T03:28:06;11.80;99.90
35692;DHT22;26978;44.830;-0.674;2022-12-29T03:30:32;11.80;99.90
35692;DHT22;26978;44.830;-0.674;2022-12-29T03:33:00;11.70;99.90
35692;DHT22;26978;44.830;-0.674;2022-12-29T03:35:27;11.60;99.90
35692;DHT22;26978;44.830;-0.674;2022-12-29T03:37:57;11.60;99.90
35692;DHT22;26978;44.830;-0.674;2022-12-29T03:40:24;11.60;99.90
35692;DHT22;26978;44.830;-0.674;2022-12-29T03:42:51;11.50;99.90
35692;DHT22;26978;44.830;-0.674;2022-12-29T03:45:18;11.50;99.90
35692;DHT22;26978;44.830;-0.674;2022-12-29T03:47:44;11.50;99.90
35692;DHT22;26978;44.830;-0.674;2022-12-29T03:50:11;11.50;99.90
35692;DHT22;26978;44.830;-0.674;2022-12-29T03:52:36;11.60;99.90
35692;DHT22;26978;44.830;-0.674;2022-12-29T03:55:02;11.60;99.90
35692;DHT22;26978;44.830;-0.674;2022-12-29T03:57:28;11.60;99.90
35692;DHT22;26978;44.830;-0.674;2022-12-29T03:59:53;11.60;99.90
35692;DHT22;26978;44.830;-0.674;2022-12-29T04:02:19;11.60;99.90
35692;DHT22;26978;44.830;-0.674;2022-12-29T04:04:44;11.70;99.90
35692;DHT22;26978;44.830;-0.674;2022-12-29T04:07:10;11.80;99.90
35692;DHT22;26978;44.830;-0.674;2022-12-29T04:09:35;11.80;99.90
35692;DHT22;26978;44.830;-0.674;2022-12-29T04:12:01;11.70;99.90
35692;DHT22;26978;44.830;-0.674;2022-12-29T04:14:26;11.70;99.90
35692;DHT22;26978;44.830;-0.674;2022-12-29T04:16:52;11.80;99.90
35692;DHT22;26978;44.830;-0.674;2022-12-29T04:19:17;11.70;99.90
35692;DHT22;26978;44.830;-0.674;2022-12-29T04:21:43;11.70;99.90
35692;DHT22;26978;44.830;-0.674;2022-12-29T04:24:09;11.70;99.90
35692;DHT22;26978;44.830;-0.674;2022-12-29T04:26:34;11.80;99.90
35692;DHT22;26978;44.830;-0.674;2022-12-29T04:29:00;11.80;99.90
35692;DHT22;26978;44.830;-0.674;2022-12-29T04:31:25;11.90;99.90
35692;DHT22;26978;44.830;-0.674;2022-12-29T04:33:51;11.90;99.90
35692;DHT22;26978;44.830;-0.674;2022-12-29T04:36:16;12.10;99.90
35692;DHT22;26978;44.830;-0.674;2022-12-29T04:38:42;12.10;99.90
35692;DHT22;26978;44.830;-0.674;2022-12-29T04:41:07;12.10;99.90
35692;DHT22;26978;44.830;-0.674;2022-12-29T04:43:33;12.10;99.90
35692;DHT22;26978;44.830;-0.674;2022-12-29T04:45:58;12.20;99.90
35692;DHT22;26978;44.830;-0.674;2022-12-29T04:48:24;12.20;99.90
35692;DHT22;26978;44.830;-0.674;2022-12-29T04:50:49;12.20;99.90
35692;DHT22;26978;44.830;-0.674;2022-12-29T04:53:15;12.30;99.90
35692;DHT22;26978;44.830;-0.674;2022-12-29T04:55:41;12.20;99.90
35692;DHT22;26978;44.830;-0.674;2022-12-29T04:58:06;12.20;99.90
35692;DHT22;26978;44.830;-0.674;2022-12-29T05:00:32;12.30;99.90
35692;DHT22;26978;44.830;-0.674;2022-12-29T05:02:58;12.30;99.90
35692;DHT22;26978;44.830;-0.674;2022-12-29T05:05:23;12.30;99.90
35692;DHT22;26978;44.830;-0.674;2022-12-29T05:07:49;12.30;99.90
35692;DHT22;26978;44.830;-0.674;2022-12-29T05:10:15;12.20;99.90
35692;DHT22;26978;44.830;-0.674;2022-12-29T05:12:40;12.20;99.90
35692;DHT22;26978;44.830;-0.674;2022-12-29T05:15:06;12.20;99.90
35692;DHT22;26978;44.830;-0.674;2022-12-29T05:17:32;12.20;99.90
35692;DHT22;26978;44.830;-0.674;2022-12-29T05:19:58;12.20;99.90
35692;DHT22;26978;44.830;-0.674;2022-12-29T05:22:24;12.20;99.90
35692;DHT22;26978;44.830;-0.674;2022-12-29T05:24:50;12.10;99.90
35692;DHT22;26978;44.830;-0.674;2022-12-29T05:27:15;12.10;99.90
35692;DHT22;26978;44.830;-0.674;2022-12-29T05:29:41;12.10;99.90
35692;DHT22;26978;44.830;-0.674;2022-12-29T05:32:07;12.00;99.90
35692;DHT22;26978;44.830;-0.674;2022-12-29T05:34:32;12.10;99.90
35692;DHT22;26978;44.830;-0.674;2022-12-29T05:36:58;12.00;99.90
35692;DHT22;26978;44.830;-0.674;2022-12-29T05:39:23;12.00;99.90
35692;DHT22;26978;44.830;-0.674;2022-12-29T05:41:49;12.00;99.90
35692;DHT22;26978;44.830;-0.674;2022-12-29T05:44:15;12.10;99.90
35692;DHT22;26978;44.830;-0.674;2022-12-29T05:46:40;12.00;99.90
35692;DHT22;26978;44.830;-0.674;2022-12-29T05:49:06;12.00;99.90
35692;DHT22;26978;44.830;-0.674;2022-12-29T05:51:31;12.00;99.90
35692;DHT22;26978;44.830;-0.674;2022-12-29T05:53:57;12.10;99.90
35692;DHT22;26978;44.830;-0.674;2022-12-29T05:56:23;12.10;99.90
35692;DHT22;26978;44.830;-0.674;2022-12-29T05:58:48;12.10;99.90
35692;DHT22;26978;44.830;-0.674;2022-12-29T06:01:14;12.10;99.90
35692;DHT22;26978;44.830;-0.674;2022-12-29T06:03:39;12.10;99.90
35692;DHT22;26978;44.830;-0.674;2022-12-29T06:06:05;12.10;99.90
35692;DHT22;26978;44.830;-0.674;2022-12-29T06:08:30;12.10;99.90
35692;DHT22;26978;44.830;-0.674;2022-12-29T06:10:56;12.10;99.90
35692;DHT22;26978;44.830;-0.674;2022-12-29T06:13:22;12.10;99.90
35692;DHT22;26978;44.830;-0.674;2022-12-29T06:15:47;12.10;99.90
35692;DHT22;26978;44.830;-0.674;2022-12-29T06:18:13;12.00;99.90
35692;DHT22;26978;44.830;-0.674;2022-12-29T06:20:39;12.10;99.90
35692;DHT22;26978;44.830;-0.674;2022-12-29T06:23:04;12.00;99.90
35692;DHT22;26978;44.830;-0.674;2022-12-29T06:25:30;11.90;99.90
35692;DHT22;26978;44.830;-0.674;2022-12-29T06:27:57;11.90;99.90
35692;DHT22;26978;44.830;-0.674;2022-12-29T06:30:23;11.90;99.90
35692;DHT22;26978;44.830;-0.674;2022-12-29T06:32:48;11.90;99.90
35692;DHT22;26978;44.830;-0.674;2022-12-29T06:35:14;11.90;99.90
35692;DHT22;26978;44.830;-0.674;2022-12-29T06:37:40;11.90;99.90
35692;DHT22;26978;44.830;-0.674;2022-12-29T06:40:05;11.90;99.90
35692;DHT22;26978;44.830;-0.674;2022-12-29T06:42:31;11.90;99.90
35692;DHT22;26978;44.830;-0.674;2022-12-29T06:44:56;11.90;99.90
35692;DHT22;26978;44.830;-0.674;2022-12-29T06:47:24;11.80;99.90
35692;DHT22;26978;44.830;-0.674;2022-12-29T06:49:49;11.80;99.90
35692;DHT22;26978;44.830;-0.674;2022-12-29T06:52:15;11.70;99.90
35692;DHT22;26978;44.830;-0.674;2022-12-29T06:54:40;11.60;99.90
35692;DHT22;26978;44.830;-0.674;2022-12-29T06:57:06;11.60;99.90
35692;DHT22;26978;44.830;-0.674;2022-12-29T06:59:31;11.50;99.90
35692;DHT22;26978;44.830;-0.674;2022-12-29T07:01:57;11.50;99.90
35692;DHT22;26978;44.830;-0.674;2022-12-29T07:04:22;11.60;99.90
35692;DHT22;26978;44.830;-0.674;2022-12-29T07:06:48;11.60;99.90
35692;DHT22;26978;44.830;-0.674;2022-12-29T07:09:14;11.60;99.90
35692;DHT22;26978;44.830;-0.674;2022-12-29T07:11:39;11.60;99.90
35692;DHT22;26978;44.830;-0.674;2022-12-29T07:14:05;11.70;99.90
35692;DHT22;26978;44.830;-0.674;2022-12-29T07:16:31;11.70;99.90
35692;DHT22;26978;44.830;-0.674;2022-12-29T07:18:56;11.60;99.90
35692;DHT22;26978;44.830;-0.674;2022-12-29T07:21:24;11.70;99.90
35692;DHT22;26978;44.830;-0.674;2022-12-29T07:23:49;11.60;99.90
35692;DHT22;26978;44.830;-0.674;2022-12-29T07:26:15;11.70;99.90
35692;DHT22;26978;44.830;-0.674;2022-12-29T07:28:42;11.70;99.90
35692;DHT22;26978;44.830;-0.674;2022-12-29T07:31:15;11.70;99.90
35692;DHT22;26978;44.830;-0.674;2022-12-29T07:33:41;11.70;99.90
35692;DHT22;26978;44.830;-0.674;2022-12-29T07:36:06;11.80;99.90
35692;DHT22;26978;44.830;-0.674;2022-12-29T07:38:32;11.80;99.90
35692;DHT22;26978;44.830;-0.674;2022-12-29T07:40:58;11.80;99.90
35692;DHT22;26978;44.830;-0.674;2022-12-29T07:43:23;11.90;99.90
35692;DHT22;26978;44.830;-0.674;2022-12-29T07:45:49;11.80;99.90
35692;DHT22;26978;44.830;-0.674;2022-12-29T07:48:14;11.90;99.90
35692;DHT22;26978;44.830;-0.674;2022-12-29T07:50:40;11.90;99.90
35692;DHT22;26978;44.830;-0.674;2022-12-29T07:53:05;11.90;99.90
35692;DHT22;26978;44.830;-0.674;2022-12-29T07:55:31;11.90;99.90
35692;DHT22;26978;44.830;-0.674;2022-12-29T07:57:57;12.00;99.90
35692;DHT22;26978;44.830;-0.674;2022-12-29T08:00:22;12.00;99.90
35692;DHT22;26978;44.830;-0.674;2022-12-29T08:02:48;12.00;99.90
35692;DHT22;26978;44.830;-0.674;2022-12-29T08:05:13;12.00;99.90
35692;DHT22;26978;44.830;-0.674;2022-12-29T08:07:42;12.00;99.90
35692;DHT22;26978;44.830;-0.674;2022-12-29T08:10:08;12.00;99.90
35692;DHT22;26978;44.830;-0.674;2022-12-29T08:12:33;12.00;99.90
35692;DHT22;26978;44.830;-0.674;2022-12-29T08:14:59;12.10;99.90
35692;DHT22;26978;44.830;-0.674;2022-12-29T08:17:24;12.10;99.90
35692;DHT22;26978;44.830;-0.674;2022-12-29T08:19:50;12.10;99.90
35692;DHT22;26978;44.830;-0.674;2022-12-29T08:22:15;12.00;99.90
35692;DHT22;26978;44.830;-0.674;2022-12-29T08:24:41;12.10;99.90
35692;DHT22;26978;44.830;-0.674;2022-12-29T08:27:06;12.10;99.90
35692;DHT22;26978;44.830;-0.674;2022-12-29T08:29:32;12.10;99.90
35692;DHT22;26978;44.830;-0.674;2022-12-29T08:31:57;12.10;99.90
35692;DHT22;26978;44.830;-0.674;2022-12-29T08:34:23;12.10;99.90
35692;DHT22;26978;44.830;-0.674;2022-12-29T08:36:49;12.10;99.90
35692;DHT22;26978;44.830;-0.674;2022-12-29T08:39:14;12.10;99.90
35692;DHT22;26978;44.830;-0.674;2022-12-29T08:41:40;12.10;99.90
35692;DHT22;26978;44.830;-0.674;2022-12-29T08:44:05;12.10;99.90
35692;DHT22;26978;44.830;-0.674;2022-12-29T08:46:31;12.10;99.90
35692;DHT22;26978;44.830;-0.674;2022-12-29T08:48:56;12.10;99.90
35692;DHT22;26978;44.830;-0.674;2022-12-29T08:51:22;12.10;99.90
35692;DHT22;26978;44.830;-0.674;2022-12-29T08:53:48;12.10;99.90
35692;DHT22;26978;44.830;-0.674;2022-12-29T08:56:13;12.10;99.90
35692;DHT22;26978;44.830;-0.674;2022-12-29T08:58:39;12.10;99.90
35692;DHT22;26978;44.830;-0.674;2022-12-29T09:01:05;12.10;99.90
35692;DHT22;26978;44.830;-0.674;2022-12-29T09:03:31;12.10;99.90
35692;DHT22;26978;44.830;-0.674;2022-12-29T09:05:56;12.10;99.90
35692;DHT22;26978;44.830;-0.674;2022-12-29T09:08:22;12.10;99.90
35692;DHT22;26978;44.830;-0.674;2022-12-29T09:10:48;12.10;99.90
35692;DHT22;26978;44.830;-0.674;2022-12-29T09:13:14;12.10;99.90
35692;DHT22;26978;44.830;-0.674;2022-12-29T09:15:40;12.10;99.90
35692;DHT22;26978;44.830;-0.674;2022-12-29T09:18:06;12.10;99.90
35692;DHT22;26978;44.830;-0.674;2022-12-29T09:20:32;12.10;99.90
35692;DHT22;26978;44.830;-0.674;2022-12-29T09:22:57;12.10;99.90
35692;DHT22;26978;44.830;-0.674;2022-12-29T09:25:24;12.10;99.90
35692;DHT22;26978;44.830;-0.674;2022-12-29T09:27:50;12.10;99.90
35692;DHT22;26978;44.830;-0.674;2022-12-29T09:30:17;12.10;99.90
35692;DHT22;26978;44.830;-0.674;2022-12-29T09:32:43;12.10;99.90
35692;DHT22;26978;44.830;-0.674;2022-12-29T09:35:08;12.20;99.90
35692;DHT22;26978;44.830;-0.674;2022-12-29T09:37:34;12.20;99.90
35692;DHT22;26978;44.830;-0.674;2022-12-29T09:39:59;12.20;99.90
35692;DHT22;26978;44.830;-0.674;2022-12-29T09:42:37;12.20;99.90
35692;DHT22;26978;44.830;-0.674;2022-12-29T09:45:15;12.20;99.90
35692;DHT22;26978;44.830;-0.674;2022-12-29T09:47:42;12.20;99.90
35692;DHT22;26978;44.830;-0.674;2022-12-29T09:53:20;12.10;99.90
35692;DHT22;26978;44.830;-0.674;2022-12-29T09:55:24;12.20;99.90
35692;DHT22;26978;44.830;-0.674;2022-12-29T09:57:55;12.20;99.90
35692;DHT22;26978;44.830;-0.674;2022-12-29T10:00:22;12.20;99.90
35692;DHT22;26978;44.830;-0.674;2022-12-29T10:02:56;12.20;99.90
35692;DHT22;26978;44.830;-0.674;2022-12-29T10:08:00;12.30;99.90
35692;DHT22;26978;44.830;-0.674;2022-12-29T10:15:54;12.30;99.90
35692;DHT22;26978;44.830;-0.674;2022-12-29T10:21:18;12.30;99.90
35692;DHT22;26978;44.830;-0.674;2022-12-29T10:23:49;12.30;99.90
35692;DHT22;26978;44.830;-0.674;2022-12-29T10:26:17;12.30;99.90
35692;DHT22;26978;44.830;-0.674;2022-12-29T10:33:56;12.30;99.90
35692;DHT22;26978;44.830;-0.674;2022-12-29T10:36:31;12.30;99.90
35692;DHT22;26978;44.830;-0.674;2022-12-29T10:39:14;12.40;99.90
35692;DHT22;26978;44.830;-0.674;2022-12-29T10:41:53;12.40;99.90
35692;DHT22;26978;44.830;-0.674;2022-12-29T10:44:19;12.40;99.90
35692;DHT22;26978;44.830;-0.674;2022-12-29T10:46:53;12.30;99.90
35692;DHT22;26978;44.830;-0.674;2022-12-29T10:49:20;12.40;99.90
35692;DHT22;26978;44.830;-0.674;2022-12-29T10:51:46;12.40;99.90
35692;DHT22;26978;44.830;-0.674;2022-12-29T10:54:15;12.40;99.90
35692;DHT22;26978;44.830;-0.674;2022-12-29T10:56:42;12.40;99.90
35692;DHT22;26978;44.830;-0.674;2022-12-29T10:59:24;12.40;99.90
35692;DHT22;26978;44.830;-0.674;2022-12-29T11:06:44;12.40;99.90
35692;DHT22;26978;44.830;-0.674;2022-12-29T11:09:15;12.40;99.90
35692;DHT22;26978;44.830;-0.674;2022-12-29T11:11:42;12.40;99.90
35692;DHT22;26978;44.830;-0.674;2022-12-29T11:14:12;12.40;99.90
35692;DHT22;26978;44.830;-0.674;2022-12-29T11:16:39;12.40;99.90
35692;DHT22;26978;44.830;-0.674;2022-12-29T11:19:10;12.50;99.90
35692;DHT22;26978;44.830;-0.674;2022-12-29T11:21:44;12.50;99.90
35692;DHT22;26978;44.830;-0.674;2022-12-29T11:26:45;12.60;99.90
35692;DHT22;26978;44.830;-0.674;2022-12-29T11:31:43;12.70;99.90
35692;DHT22;26978;44.830;-0.674;2022-12-29T11:34:11;12.70;99.90
35692;DHT22;26978;44.830;-0.674;2022-12-29T11:36:41;12.70;99.90
35692;DHT22;26978;44.830;-0.674;2022-12-29T11:39:16;12.80;99.90
35692;DHT22;26978;44.830;-0.674;2022-12-29T11:41:46;12.80;99.90
35692;DHT22;26978;44.830;-0.674;2022-12-29T11:44:16;12.80;99.90
35692;DHT22;26978;44.830;-0.674;2022-12-29T11:46:44;12.90;99.90
35692;DHT22;26978;44.830;-0.674;2022-12-29T11:49:12;12.90;99.90
35692;DHT22;26978;44.830;-0.674;2022-12-29T11:51:41;13.00;99.90
35692;DHT22;26978;44.830;-0.674;2022-12-29T11:54:09;13.00;99.90
35692;DHT22;26978;44.830;-0.674;2022-12-29T11:56:41;13.20;99.90
35692;DHT22;26978;44.830;-0.674;2022-12-29T12:01:52;13.00;99.90
35692;DHT22;26978;44.830;-0.674;2022-12-29T12:04:18;13.00;99.90
35692;DHT22;26978;44.830;-0.674;2022-12-29T12:07:12;13.00;99.90
35692;DHT22;26978;44.830;-0.674;2022-12-29T12:09:45;12.90;99.90
35692;DHT22;26978;44.830;-0.674;2022-12-29T12:12:20;13.00;99.90
35692;DHT22;26978;44.830;-0.674;2022-12-29T12:14:54;13.00;99.90
35692;DHT22;26978;44.830;-0.674;2022-12-29T12:17:29;13.00;99.90
35692;DHT22;26978;44.830;-0.674;2022-12-29T12:22:45;12.90;99.90
35692;DHT22;26978;44.830;-0.674;2022-12-29T12:25:21;12.90;99.90
35692;DHT22;26978;44.830;-0.674;2022-12-29T12:27:53;12.90;99.90
35692;DHT22;26978;44.830;-0.674;2022-12-29T12:30:22;12.90;99.90
35692;DHT22;26978;44.830;-0.674;2022-12-29T12:33:35;13.00;99.90
35692;DHT22;26978;44.830;-0.674;2022-12-29T12:38:10;13.00;99.90
35692;DHT22;26978;44.830;-0.674;2022-12-29T12:48:40;12.80;99.90
35692;DHT22;26978;44.830;-0.674;2022-12-29T12:51:29;12.80;99.90
35692;DHT22;26978;44.830;-0.674;2022-12-29T13:02:15;12.70;99.90
35692;DHT22;26978;44.830;-0.674;2022-12-29T13:09:58;12.60;99.90
35692;DHT22;26978;44.830;-0.674;2022-12-29T13:12:36;12.70;99.90
35692;DHT22;26978;44.830;-0.674;2022-12-29T13:18:22;12.50;99.90
35692;DHT22;26978;44.830;-0.674;2022-12-29T13:20:47;12.50;99.90
35692;DHT22;26978;44.830;-0.674;2022-12-29T13:36:19;12.80;99.90
35692;DHT22;26978;44.830;-0.674;2022-12-29T13:38:48;12.80;99.90
35692;DHT22;26978;44.830;-0.674;2022-12-29T13:41:24;12.70;99.90
35692;DHT22;26978;44.830;-0.674;2022-12-29T13:43:51;12.60;99.90
35692;DHT22;26978;44.830;-0.674;2022-12-29T13:46:21;12.40;99.90
35692;DHT22;26978;44.830;-0.674;2022-12-29T13:48:50;12.40;99.90
35692;DHT22;26978;44.830;-0.674;2022-12-29T13:51:16;12.30;99.90
35692;DHT22;26978;44.830;-0.674;2022-12-29T13:56:35;12.30;99.90
35692;DHT22;26978;44.830;-0.674;2022-12-29T14:01:37;12.30;99.90
35692;DHT22;26978;44.830;-0.674;2022-12-29T14:04:23;12.30;99.90
35692;DHT22;26978;44.830;-0.674;2022-12-29T14:07:00;12.30;99.90
35692;DHT22;26978;44.830;-0.674;2022-12-29T14:11:57;12.20;99.90
35692;DHT22;26978;44.830;-0.674;2022-12-29T14:14:27;12.10;99.90
35692;DHT22;26978;44.830;-0.674;2022-12-29T14:16:53;12.10;99.90
35692;DHT22;26978;44.830;-0.674;2022-12-29T14:19:26;12.10;99.90
35692;DHT22;26978;44.830;-0.674;2022-12-29T14:21:58;12.00;99.90
35692;DHT22;26978;44.830;-0.674;2022-12-29T14:34:46;11.90;99.90
35692;DHT22;26978;44.830;-0.674;2022-12-29T14:37:26;11.90;99.90
35692;DHT22;26978;44.830;-0.674;2022-12-29T14:40:03;11.90;99.90
35692;DHT22;26978;44.830;-0.674;2022-12-29T14:42:29;11.80;99.90
35692;DHT22;26978;44.830;-0.674;2022-12-29T14:45:05;11.80;99.90
35692;DHT22;26978;44.830;-0.674;2022-12-29T14:47:33;11.80;99.90
35692;DHT22;26978;44.830;-0.674;2022-12-29T14:57:47;11.80;99.90
35692;DHT22;26978;44.830;-0.674;2022-12-29T15:02:45;11.80;99.90
35692;DHT22;26978;44.830;-0.674;2022-12-29T15:05:32;11.80;99.90
35692;DHT22;26978;44.830;-0.674;2022-12-29T15:07:59;11.70;99.90
35692;DHT22;26978;44.830;-0.674;2022-12-29T15:10:25;11.70;99.90
35692;DHT22;26978;44.830;-0.674;2022-12-29T15:12:53;11.70;99.90
35692;DHT22;26978;44.830;-0.674;2022-12-29T15:15:26;11.70;99.90
35692;DHT22;26978;44.830;-0.674;2022-12-29T15:17:52;11.70;99.90
35692;DHT22;26978;44.830;-0.674;2022-12-29T15:20:28;11.70;99.90
35692;DHT22;26978;44.830;-0.674;2022-12-29T15:22:55;11.70;99.90
35692;DHT22;26978;44.830;-0.674;2022-12-29T15:25:21;11.80;99.90
35692;DHT22;26978;44.830;-0.674;2022-12-29T15:28:00;11.80;99.90
35692;DHT22;26978;44.830;-0.674;2022-12-29T15:30:26;11.80;99.90
35692;DHT22;26978;44.830;-0.674;2022-12-29T15:32:52;11.80;99.90
35692;DHT22;26978;44.830;-0.674;2022-12-29T15:35:36;11.80;99.90
35692;DHT22;26978;44.830;-0.674;2022-12-29T15:38:15;11.80;99.90
35692;DHT22;26978;44.830;-0.674;2022-12-29T15:40:43;11.80;99.90
35692;DHT22;26978;44.830;-0.674;2022-12-29T15:45:35;11.70;99.90
35692;DHT22;26978;44.830;-0.674;2022-12-29T15:48:01;11.70;99.90
35692;DHT22;26978;44.830;-0.674;2022-12-29T15:50:27;11.70;99.90
35692;DHT22;26978;44.830;-0.674;2022-12-29T15:52:53;11.70;99.90
35692;DHT22;26978;44.830;-0.674;2022-12-29T15:55:21;11.70;99.90
35692;DHT22;26978;44.830;-0.674;2022-12-29T15:57:50;11.70;99.90
35692;DHT22;26978;44.830;-0.674;2022-12-29T16:00:22;11.60;99.90
35692;DHT22;26978;44.830;-0.674;2022-12-29T16:02:48;11.60;99.90
35692;DHT22;26978;44.830;-0.674;2022-12-29T16:05:15;11.60;99.90
35692;DHT22;26978;44.830;-0.674;2022-12-29T16:07:50;11.60;99.90
35692;DHT22;26978;44.830;-0.674;2022-12-29T16:13:04;11.50;99.90
35692;DHT22;26978;44.830;-0.674;2022-12-29T16:15:32;11.50;99.90
35692;DHT22;26978;44.830;-0.674;2022-12-29T16:17:58;11.50;99.90
35692;DHT22;26978;44.830;-0.674;2022-12-29T16:20:24;11.50;99.90
35692;DHT22;26978;44.830;-0.674;2022-12-29T16:22:56;11.40;99.90
35692;DHT22;26978;44.830;-0.674;2022-12-29T16:27:48;11.40;99.90
35692;DHT22;26978;44.830;-0.674;2022-12-29T16:30:22;11.40;99.90
35692;DHT22;26978;44.830;-0.674;2022-12-29T16:32:49;11.30;99.90
35692;DHT22;26978;44.830;-0.674;2022-12-29T16:35:20;11.30;99.90
35692;DHT22;26978;44.830;-0.674;2022-12-29T16:37:46;11.30;99.90
35692;DHT22;26978;44.830;-0.674;2022-12-29T16:42:45;11.30;99.90
35692;DHT22;26978;44.830;-0.674;2022-12-29T16:47:46;11.30;99.90
35692;DHT22;26978;44.830;-0.674;2022-12-29T16:50:13;11.30;99.90
35692;DHT22;26978;44.830;-0.674;2022-12-29T16:52:41;11.30;99.90
35692;DHT22;26978;44.830;-0.674;2022-12-29T16:55:14;11.30;99.90
35692;DHT22;26978;44.830;-0.674;2022-12-29T16:57:40;11.30;99.90
35692;DHT22;26978;44.830;-0.674;2022-12-29T17:00:16;11.30;99.90
35692;DHT22;26978;44.830;-0.674;2022-12-29T17:02:43;11.30;99.90
35692;DHT22;26978;44.830;-0.674;2022-12-29T17:05:13;11.30;99.90
35692;DHT22;26978;44.830;-0.674;2022-12-29T17:07:38;11.30;99.90
35692;DHT22;26978;44.830;-0.674;2022-12-29T17:10:04;11.30;99.90
35692;DHT22;26978;44.830;-0.674;2022-12-29T17:12:30;11.30;99.90
35692;DHT22;26978;44.830;-0.674;2022-12-29T17:14:58;11.30;99.90
35692;DHT22;26978;44.830;-0.674;2022-12-29T17:17:30;11.30;99.90
35692;DHT22;26978;44.830;-0.674;2022-12-29T17:19:57;11.30;99.90
35692;DHT22;26978;44.830;-0.674;2022-12-29T17:22:26;11.30;99.90
35692;DHT22;26978;44.830;-0.674;2022-12-29T17:24:52;11.30;99.90
35692;DHT22;26978;44.830;-0.674;2022-12-29T17:29:46;11.30;99.90
35692;DHT22;26978;44.830;-0.674;2022-12-29T17:32:12;11.30;99.90
35692;DHT22;26978;44.830;-0.674;2022-12-29T17:34:39;11.20;99.90
35692;DHT22;26978;44.830;-0.674;2022-12-29T17:39:51;11.20;99.90
35692;DHT22;26978;44.830;-0.674;2022-12-29T17:42:17;11.20;99.90
35692;DHT22;26978;44.830;-0.674;2022-12-29T17:44:43;11.20;99.90
35692;DHT22;26978;44.830;-0.674;2022-12-29T17:47:12;11.20;99.90
35692;DHT22;26978;44.830;-0.674;2022-12-29T17:49:40;11.10;99.90
35692;DHT22;26978;44.830;-0.674;2022-12-29T17:52:13;11.10;99.90
35692;DHT22;26978;44.830;-0.674;2022-12-29T17:54:41;11.10;99.90
35692;DHT22;26978;44.830;-0.674;2022-12-29T17:57:09;11.00;99.90